This is the latest recevied weather packets stored in our database for station/object MM9SQL. If no packets are shown the sender has not sent any weather packets the latest 10 day(s).
| Time | Temp. | Humidity | Pressure | Rain* | Wind** | Luminosity | Snow |
|---|---|---|---|---|---|---|---|
| 1778328602 | 10° C | 50% | 1025 hPa | 0 mm | - | - | - |
| 1778327703 | 10° C | 51% | 1025 hPa | 0 mm | - | - | - |
| 1778326203 | 10° C | 52% | 1025 hPa | 0 mm | - | - | - |
| 1778323207 | 8.33° C | 63% | 1025.1 hPa | 0 mm | - | - | - |
| 1778321405 | 8.89° C | 65% | 1025 hPa | 0 mm | - | - | - |
| 1778319603 | 8.33° C | 64% | 1024.8 hPa | 0 mm | - | - | - |
| 1778319003 | 7.22° C | 67% | 1024.7 hPa | 0 mm | - | - | - |
| 1778318405 | 7.22° C | 68% | 1024.8 hPa | 0 mm | - | - | - |
| 1778316602 | 7.78° C | 71% | 1024.6 hPa | 0 mm | - | - | - |
| 1778316303 | 7.78° C | 73% | 1024.6 hPa | 0 mm | - | - | - |
| 1778314203 | 7.22° C | 73% | 1024.6 hPa | 0 mm | - | - | - |
| 1778313911 | 7.22° C | 76% | 1024.6 hPa | 0 mm | - | - | - |
| 1778309702 | 6.67° C | 79% | 1024.5 hPa | 0 mm | - | - | - |
| 1778309108 | 6.67° C | 79% | 1024.4 hPa | 0 mm | - | - | - |
| 1778307606 | 6.11° C | 81% | 1024.2 hPa | 0 mm | - | - | - |
| 1778306413 | 5.56° C | 82% | 1024.1 hPa | 0 mm | - | - | - |
| 1778305206 | 5° C | 84% | 1023.9 hPa | 0 mm | - | - | - |
| 1778302505 | 3.89° C | 85% | 1023.5 hPa | 0 mm | - | - | - |
| 1778301907 | 3.89° C | 84% | 1023.6 hPa | 0 mm | - | - | - |
| 1778301012 | 4.44° C | 83% | 1023.4 hPa | 0 mm | - | - | - |
| 1778297408 | 4.44° C | 83% | 1023.1 hPa | 0 mm | - | - | - |
| 1778279430 | 7.78° C | 70% | 1021.4 hPa | 0 mm | - | - | - |
| 1778277305 | 7.78° C | 71% | 1021.3 hPa | 0 mm | - | - | - |
| 1778274604 | 8.33° C | 70% | 1020.8 hPa | 0 mm | - | - | - |
| 1778273705 | 8.89° C | 69% | 1020.5 hPa | 0 mm | - | - | - |
* Rain latest hour (hover to see other rain measurements)
** Current wind speed in m/s (hover to see current wind gust speed)